Time;durP1;ratioP1;P1;durP2;ratioP2;P2;SDS_P1;SDS_P2;PMS_P1;PMS_P2;Temp;Humidity;BMP_temperature;BMP_pressure;BME280_temperature;BME280_humidity;BME280_pressure;Samples;Min_cycle;Max_cycle;Signal;HPM_P1;HPM_P2
2021/06/29 00:01:55;;;;;;;0.50;0.20;;;18.40;99.90;;;;;;6126967;23;20411;-92
2021/06/29 00:04:22;;;;;;;0.50;0.20;;;18.30;99.90;;;;;;6126677;23;20412;-92
2021/06/29 00:06:49;;;;;;;0.50;0.30;;;18.30;99.90;;;;;;6128382;23;20419;-91
2021/06/29 00:09:16;;;;;;;0.50;0.30;;;18.30;99.90;;;;;;6132697;23;20466;-91
2021/06/29 00:11:43;;;;;;;0.60;0.47;;;18.30;99.90;;;;;;6139049;23;20424;-91
2021/06/29 00:14:10;;;;;;;0.70;0.63;;;18.30;99.90;;;;;;6128950;23;20499;-91
2021/06/29 00:16:37;;;;;;;0.50;0.20;;;18.30;99.90;;;;;;6132981;23;20398;-91
2021/06/29 00:19:05;;;;;;;0.50;0.30;;;18.30;99.90;;;;;;6151859;23;20507;-91
2021/06/29 00:21:32;;;;;;;0.50;0.30;;;18.30;99.90;;;;;;6135793;23;20426;-91
2021/06/29 00:23:59;;;;;;;0.50;0.20;;;18.30;99.90;;;;;;6126679;23;20434;-91
2021/06/29 00:26:26;;;;;;;0.63;0.60;;;18.20;99.90;;;;;;6125901;23;20406;-91
2021/06/29 00:28:52;;;;;;;0.60;0.53;;;18.20;99.90;;;;;;6126910;23;20415;-91
2021/06/29 00:31:20;;;;;;;0.50;0.20;;;18.20;99.90;;;;;;6127464;23;20467;-92
2021/06/29 00:33:47;;;;;;;0.60;0.50;;;18.20;99.90;;;;;;6126860;23;20440;-90
2021/06/29 00:36:16;;;;;;;0.50;0.30;;;18.20;99.90;;;;;;6125816;23;20439;-89
2021/06/29 00:38:43;;;;;;;0.50;0.20;;;18.20;99.90;;;;;;6126313;23;20727;-91
2021/06/29 00:41:09;;;;;;;0.50;0.30;;;18.20;99.90;;;;;;6126557;23;20447;-91
2021/06/29 00:43:36;;;;;;;0.50;0.30;;;18.30;99.90;;;;;;6127066;23;20765;-90
2021/06/29 00:46:03;;;;;;;0.50;0.30;;;18.30;99.90;;;;;;6126661;23;20393;-90
2021/06/29 00:48:30;;;;;;;0.50;0.27;;;18.30;99.90;;;;;;6128477;23;20459;-90
2021/06/29 00:50:57;;;;;;;0.50;0.30;;;18.30;99.90;;;;;;6128630;23;20889;-89
2021/06/29 00:53:25;;;;;;;0.50;0.40;;;18.40;99.90;;;;;;6150633;23;20417;-89
2021/06/29 00:55:53;;;;;;;0.50;0.40;;;18.50;99.90;;;;;;6152365;23;20432;-90
2021/06/29 00:58:20;;;;;;;0.60;0.50;;;18.50;99.90;;;;;;6153041;23;20405;-90
2021/06/29 01:00:47;;;;;;;0.50;0.20;;;18.50;99.90;;;;;;6147930;23;20462;-90
2021/06/29 01:03:14;;;;;;;0.50;0.30;;;18.50;99.90;;;;;;6149325;23;20419;-91
2021/06/29 01:05:42;;;;;;;0.50;0.30;;;18.50;99.90;;;;;;6147649;23;20437;-90
2021/06/29 01:08:09;;;;;;;0.50;0.30;;;18.50;99.90;;;;;;6139627;23;20392;-90
2021/06/29 01:10:38;;;;;;;0.50;0.20;;;18.50;99.90;;;;;;6137723;23;20406;-91
2021/06/29 01:13:04;;;;;;;0.50;0.40;;;18.50;99.90;;;;;;6133257;23;20428;-91
2021/06/29 01:15:31;;;;;;;0.50;0.20;;;18.50;99.90;;;;;;6133273;23;20402;-91
2021/06/29 01:17:59;;;;;;;0.50;0.30;;;18.60;99.90;;;;;;6132920;23;20415;-91
2021/06/29 01:20:29;;;;;;;0.50;0.30;;;18.60;99.90;;;;;;6131230;23;20440;-91
2021/06/29 01:22:59;;;;;;;0.50;0.30;;;18.50;99.90;;;;;;6128525;23;20421;-91
2021/06/29 01:25:29;;;;;;;0.50;0.30;;;18.50;99.90;;;;;;6129420;23;20396;-92
2021/06/29 01:28:05;;;;;;;0.50;0.30;;;18.60;99.90;;;;;;6134779;23;20441;-92
2021/06/29 01:33:20;;;;;;;0.50;0.30;;;18.60;99.90;;;;;;6129638;23;20415;-90
2021/06/29 01:35:48;;;;;;;0.50;0.30;;;18.60;99.90;;;;;;6129482;23;20411;-90
2021/06/29 01:38:19;;;;;;;0.50;0.20;;;18.70;99.90;;;;;;6128998;23;20408;-90
2021/06/29 01:40:46;;;;;;;0.63;0.50;;;18.60;99.90;;;;;;6129084;23;20428;-91
2021/06/29 01:43:14;;;;;;;0.50;0.30;;;18.60;99.90;;;;;;6126612;23;20451;-90
2021/06/29 01:45:43;;;;;;;0.60;0.50;;;18.60;99.90;;;;;;6128513;23;20403;-90
2021/06/29 01:48:18;;;;;;;0.60;0.40;;;18.60;99.90;;;;;;6127531;23;20415;-89
2021/06/29 01:50:44;;;;;;;0.50;0.30;;;18.60;99.90;;;;;;6143199;23;20378;-87
2021/06/29 01:53:13;;;;;;;0.50;0.27;;;18.50;99.90;;;;;;6149667;23;20432;-90
2021/06/29 01:55:40;;;;;;;0.50;0.27;;;18.50;99.90;;;;;;6136105;23;20415;-88
2021/06/29 01:58:06;;;;;;;1.10;1.00;;;18.60;99.90;;;;;;6130052;23;20407;-89
2021/06/29 02:00:33;;;;;;;0.50;0.20;;;18.50;99.90;;;;;;6128691;23;20785;-90
2021/06/29 02:03:00;;;;;;;0.50;0.30;;;18.40;99.90;;;;;;6127844;23;20951;-88
2021/06/29 02:05:27;;;;;;;0.50;0.30;;;18.30;99.90;;;;;;6128046;23;20484;-89
2021/06/29 02:07:54;;;;;;;0.50;0.20;;;18.30;99.90;;;;;;6128220;23;20412;-90
2021/06/29 02:10:22;;;;;;;0.50;0.20;;;18.30;99.90;;;;;;6128045;23;20868;-89
2021/06/29 02:12:48;;;;;;;0.50;0.40;;;18.30;99.90;;;;;;6133031;23;20914;-88
2021/06/29 02:15:15;;;;;;;0.50;0.23;;;18.40;99.90;;;;;;6133374;23;20439;-85
2021/06/29 02:17:42;;;;;;;0.50;0.30;;;18.30;99.90;;;;;;6134300;23;20429;-86
2021/06/29 02:20:11;;;;;;;0.70;0.67;;;18.20;99.90;;;;;;6137140;23;20434;-85
2021/06/29 02:22:38;;;;;;;0.50;0.30;;;18.20;99.90;;;;;;6143898;23;20416;-86
2021/06/29 02:25:06;;;;;;;0.50;0.20;;;18.20;99.90;;;;;;6129060;23;20434;-86
2021/06/29 02:27:34;;;;;;;0.50;0.30;;;18.10;99.90;;;;;;6128641;23;20914;-86
2021/06/29 02:30:01;;;;;;;0.50;0.20;;;18.10;99.90;;;;;;6129461;23;20410;-86
2021/06/29 02:32:28;;;;;;;1.13;1.13;;;18.10;99.90;;;;;;6128204;23;20415;-87
2021/06/29 02:34:54;;;;;;;0.50;0.20;;;18.10;99.90;;;;;;6126864;23;20413;-87
2021/06/29 02:37:21;;;;;;;0.50;0.30;;;18.00;99.90;;;;;;6127171;23;20407;-86
2021/06/29 02:39:48;;;;;;;0.50;0.30;;;18.00;99.90;;;;;;6126862;23;20424;-87
2021/06/29 02:42:18;;;;;;;2.10;1.90;;;18.00;99.90;;;;;;6127600;23;20408;-87
2021/06/29 02:44:46;;;;;;;0.50;0.30;;;17.90;99.90;;;;;;6126844;23;20439;-89
2021/06/29 02:47:13;;;;;;;0.50;0.20;;;18.00;99.90;;;;;;6127315;23;21102;-89
2021/06/29 02:49:39;;;;;;;0.50;0.30;;;18.00;99.90;;;;;;6127469;23;20411;-89
2021/06/29 02:52:07;;;;;;;0.80;0.80;;;18.00;99.90;;;;;;6126854;23;20726;-89
2021/06/29 02:54:34;;;;;;;0.80;0.80;;;18.20;99.90;;;;;;6126896;23;20412;-89
2021/06/29 02:57:01;;;;;;;0.63;0.63;;;18.20;99.90;;;;;;6127193;23;20408;-89
2021/06/29 02:59:27;;;;;;;0.50;0.30;;;18.20;99.90;;;;;;6126867;23;20917;-88
2021/06/29 03:01:55;;;;;;;0.50;0.27;;;18.10;99.90;;;;;;6127322;23;20407;-89
2021/06/29 03:04:22;;;;;;;0.60;0.40;;;18.10;99.90;;;;;;6128362;23;20450;-91
2021/06/29 03:10:32;;;;;;;0.50;0.40;;;17.90;99.90;;;;;;6136189;23;20403;-94
2021/06/29 03:13:10;;;;;;;0.50;0.20;;;17.90;99.90;;;;;;6131811;23;20439;-94
2021/06/29 03:15:39;;;;;;;0.50;0.30;;;18.00;99.90;;;;;;6131346;23;20418;-94
2021/06/29 03:18:11;;;;;;;0.50;0.30;;;18.00;99.90;;;;;;6130500;23;20806;-95
2021/06/29 03:20:43;;;;;;;0.50;0.30;;;17.90;99.90;;;;;;6131029;23;20441;-94
2021/06/29 03:23:14;;;;;;;0.80;0.77;;;17.90;99.90;;;;;;6131385;23;20443;-94
2021/06/29 03:25:45;;;;;;;0.50;0.30;;;18.00;99.90;;;;;;6130815;23;20416;-94
2021/06/29 03:28:14;;;;;;;0.50;0.20;;;18.00;99.90;;;;;;6134003;23;20435;-93
2021/06/29 03:30:43;;;;;;;0.50;0.30;;;18.10;99.90;;;;;;6130166;23;20813;-94
2021/06/29 03:33:11;;;;;;;0.60;0.50;;;18.20;99.90;;;;;;6147958;23;20426;-95
2021/06/29 03:35:39;;;;;;;0.83;0.83;;;18.10;99.90;;;;;;6150577;23;20422;-94
2021/06/29 03:40:47;;;;;;;0.50;0.20;;;18.10;99.90;;;;;;6119384;23;20464;-92
2021/06/29 03:43:15;;;;;;;0.50;0.40;;;18.10;99.90;;;;;;6117150;23;20435;-92
2021/06/29 03:45:42;;;;;;;0.50;0.27;;;18.10;99.90;;;;;;6153499;23;20411;-89
2021/06/29 03:48:10;;;;;;;0.50;0.30;;;18.10;99.90;;;;;;6132654;23;20489;-91
2021/06/29 03:50:37;;;;;;;0.67;0.60;;;18.10;99.90;;;;;;6129703;23;20412;-90
2021/06/29 03:53:04;;;;;;;0.70;0.63;;;18.10;99.90;;;;;;6131645;23;21015;-91
2021/06/29 03:55:31;;;;;;;0.47;0.30;;;18.10;99.90;;;;;;6133074;23;20424;-91
2021/06/29 03:58:00;;;;;;;0.50;0.20;;;18.00;99.90;;;;;;6139475;23;20404;-91
2021/06/29 04:00:27;;;;;;;0.50;0.27;;;18.10;99.90;;;;;;6149694;23;20472;-91
2021/06/29 04:02:53;;;;;;;1.10;1.07;;;18.10;99.90;;;;;;6130227;23;20431;-91
2021/06/29 04:05:22;;;;;;;0.63;0.63;;;18.00;99.90;;;;;;6135900;23;20412;-91
2021/06/29 04:07:48;;;;;;;0.50;0.30;;;18.00;99.90;;;;;;6154233;23;20458;-92
2021/06/29 04:10:15;;;;;;;0.50;0.23;;;18.10;99.90;;;;;;6147587;23;20416;-91
2021/06/29 04:12:42;;;;;;;0.50;0.30;;;18.10;99.90;;;;;;6145964;23;20470;-91
2021/06/29 04:15:10;;;;;;;0.50;0.30;;;18.00;99.90;;;;;;6144817;23;20406;-92
2021/06/29 04:17:45;;;;;;;0.50;0.30;;;18.10;99.90;;;;;;6140646;23;20462;-93
2021/06/29 04:20:16;;;;;;;0.50;0.30;;;18.10;99.90;;;;;;6145251;23;20434;-93
2021/06/29 04:22:45;;;;;;;0.60;0.60;;;18.10;99.90;;;;;;6147504;23;20891;-93
2021/06/29 04:25:13;;;;;;;0.50;0.40;;;18.10;99.90;;;;;;6140146;23;20487;-94
2021/06/29 04:27:41;;;;;;;0.50;0.20;;;18.10;99.90;;;;;;6130291;23;20416;-92
2021/06/29 04:30:10;;;;;;;0.50;0.20;;;18.10;99.90;;;;;;6138007;23;20885;-93
2021/06/29 04:32:37;;;;;;;1.33;0.77;;;18.10;99.90;;;;;;6130384;23;20427;-93
2021/06/29 04:35:05;;;;;;;3.73;3.53;;;18.00;99.90;;;;;;6137429;23;20487;-92
2021/06/29 04:37:32;;;;;;;0.50;0.30;;;18.00;99.90;;;;;;6146407;23;20417;-94
2021/06/29 04:40:00;;;;;;;0.50;0.30;;;18.10;99.90;;;;;;6138602;23;20809;-93
2021/06/29 04:42:27;;;;;;;0.50;0.20;;;18.10;99.90;;;;;;6133008;23;20420;-93
2021/06/29 04:44:54;;;;;;;0.50;0.40;;;18.10;99.90;;;;;;6132542;23;20454;-94
2021/06/29 04:47:23;;;;;;;0.50;0.27;;;18.20;99.90;;;;;;6135754;23;20427;-93
2021/06/29 04:49:54;;;;;;;0.50;0.20;;;18.20;99.90;;;;;;6132176;23;20416;-93
2021/06/29 04:52:22;;;;;;;0.50;0.30;;;18.20;99.90;;;;;;6132806;23;20415;-93
2021/06/29 04:54:49;;;;;;;0.50;0.30;;;18.20;99.90;;;;;;6131733;23;20455;-94
2021/06/29 04:57:24;;;;;;;0.80;0.80;;;18.30;99.90;;;;;;6132861;23;20497;-93
2021/06/29 04:59:52;;;;;;;0.50;0.30;;;18.40;99.90;;;;;;6133872;23;20446;-93
2021/06/29 05:02:23;;;;;;;0.50;0.20;;;18.40;99.90;;;;;;6137371;23;20444;-93
2021/06/29 05:04:50;;;;;;;0.50;0.30;;;18.50;99.90;;;;;;6134971;23;20432;-94
2021/06/29 05:08:23;;;;;;;0.50;0.30;;;18.50;99.90;;;;;;6135515;23;20497;-90
2021/06/29 05:10:52;;;;;;;0.50;0.30;;;18.60;99.90;;;;;;6149891;23;20447;-92
2021/06/29 05:13:20;;;;;;;0.50;0.30;;;18.60;99.90;;;;;;6134923;23;20543;-93
2021/06/29 05:15:47;;;;;;;0.60;0.53;;;18.60;99.90;;;;;;6144398;23;20483;-91
2021/06/29 05:18:16;;;;;;;1.03;0.80;;;18.60;99.90;;;;;;6140625;23;20443;-92
2021/06/29 05:20:42;;;;;;;0.60;0.57;;;18.60;99.90;;;;;;6131782;23;20435;-93
2021/06/29 05:23:09;;;;;;;0.63;0.57;;;18.70;99.90;;;;;;6142209;23;20407;-93
2021/06/29 05:25:54;;;;;;;0.97;0.87;;;18.60;99.90;;;;;;6155179;23;20602;-91
2021/06/29 05:28:23;;;;;;;0.50;0.20;;;18.70;99.90;;;;;;6141217;23;20393;-91
2021/06/29 05:30:50;;;;;;;0.50;0.23;;;18.70;99.90;;;;;;6137884;23;20479;-91
2021/06/29 05:33:17;;;;;;;2.20;2.10;;;18.80;99.90;;;;;;6147191;23;20420;-92
2021/06/29 05:35:44;;;;;;;0.60;0.53;;;18.70;99.90;;;;;;6150499;23;20419;-91
2021/06/29 05:38:11;;;;;;;0.60;0.50;;;18.70;99.90;;;;;;6140539;23;20404;-92
2021/06/29 05:40:38;;;;;;;0.50;0.30;;;18.60;99.90;;;;;;6133999;23;20440;-91
2021/06/29 05:43:05;;;;;;;2.10;2.00;;;18.70;99.90;;;;;;6133866;23;20416;-92
2021/06/29 05:45:33;;;;;;;0.50;0.20;;;18.80;99.90;;;;;;6133056;23;20418;-92
2021/06/29 05:48:00;;;;;;;0.50;0.23;;;18.90;99.90;;;;;;6135116;23;20432;-91
2021/06/29 05:50:27;;;;;;;0.50;0.30;;;18.90;99.90;;;;;;6137656;23;20436;-91
2021/06/29 05:52:55;;;;;;;0.50;0.20;;;18.90;99.90;;;;;;6140806;23;20420;-92
2021/06/29 05:55:22;;;;;;;0.50;0.30;;;18.90;99.90;;;;;;6133521;23;20851;-91
2021/06/29 05:57:49;;;;;;;0.50;0.30;;;18.90;99.90;;;;;;6132766;23;20423;-91
2021/06/29 06:00:17;;;;;;;0.50;0.30;;;19.00;99.90;;;;;;6137517;23;20444;-91
2021/06/29 06:02:46;;;;;;;0.50;0.30;;;19.00;99.90;;;;;;6135125;23;20448;-92
2021/06/29 06:05:13;;;;;;;1.23;1.13;;;19.10;99.90;;;;;;6133728;23;20483;-91
2021/06/29 06:07:40;;;;;;;0.50;0.30;;;19.20;99.90;;;;;;6142689;23;20396;-90
2021/06/29 06:10:08;;;;;;;0.50;0.27;;;19.20;99.90;;;;;;6153850;23;20404;-91
2021/06/29 06:12:35;;;;;;;0.50;0.30;;;19.30;99.90;;;;;;6133672;23;20426;-91
2021/06/29 06:15:02;;;;;;;1.40;0.70;;;19.30;99.90;;;;;;6129628;23;20499;-92
2021/06/29 06:17:30;;;;;;;0.50;0.20;;;19.40;99.90;;;;;;6131913;23;20447;-92
2021/06/29 06:19:59;;;;;;;0.63;0.63;;;19.60;99.90;;;;;;6132649;23;20400;-93
2021/06/29 06:22:26;;;;;;;0.60;0.43;;;19.70;99.90;;;;;;6136712;23;20445;-92
2021/06/29 06:24:52;;;;;;;0.50;0.37;;;19.80;99.90;;;;;;6135601;23;20455;-92
2021/06/29 06:27:19;;;;;;;0.50;0.30;;;20.00;99.90;;;;;;6136158;23;20406;-93
2021/06/29 06:29:46;;;;;;;0.50;0.30;;;20.10;99.90;;;;;;6136856;23;20814;-92
2021/06/29 06:32:13;;;;;;;0.50;0.30;;;20.30;99.90;;;;;;6129868;23;20912;-92
2021/06/29 06:34:40;;;;;;;0.67;0.57;;;20.50;99.90;;;;;;6135760;23;20445;-91
2021/06/29 06:37:12;;;;;;;0.50;0.30;;;20.70;99.90;;;;;;6154171;23;20403;-92
2021/06/29 06:39:39;;;;;;;1.10;0.40;;;20.90;99.90;;;;;;6148649;23;21017;-91
2021/06/29 06:42:07;;;;;;;0.50;0.30;;;21.20;99.90;;;;;;6136761;23;20474;-93
2021/06/29 06:44:34;;;;;;;0.60;0.60;;;21.80;99.90;;;;;;6139158;23;20435;-92
2021/06/29 06:47:05;;;;;;;0.70;0.50;;;22.50;99.90;;;;;;6131987;23;20417;-93
2021/06/29 06:49:33;;;;;;;0.50;0.23;;;23.00;99.90;;;;;;6134752;23;20399;-93
2021/06/29 06:52:00;;;;;;;1.60;1.50;;;23.50;99.90;;;;;;6131716;23;20482;-92
2021/06/29 06:54:31;;;;;;;0.50;0.30;;;24.30;99.90;;;;;;6131734;23;20441;-92
2021/06/29 06:57:01;;;;;;;0.50;0.30;;;25.50;99.90;;;;;;6134429;23;20392;-93
2021/06/29 06:59:31;;;;;;;0.50;0.30;;;26.40;99.90;;;;;;6144963;23;20494;-93
2021/06/29 07:04:36;;;;;;;0.50;0.30;;;27.70;99.90;;;;;;6111235;23;20481;-92
2021/06/29 07:09:53;;;;;;;0.50;0.20;;;29.10;96.60;;;;;;6151979;23;20531;-92
2021/06/29 07:12:36;;;;;;;;;;;;;;;;;;;;;
2021/06/29 07:15:33;;;;;;;3.27;2.20;;;30.10;92.60;;;;;;6123416;23;20451;-91
2021/06/29 07:18:22;;;;;;;4.20;3.00;;;30.90;91.20;;;;;;6148063;23;20432;-92
2021/06/29 07:20:51;;;;;;;4.60;3.13;;;31.50;90.00;;;;;;6145537;23;20475;-91
2021/06/29 07:23:24;;;;;;;2.97;2.77;;;31.40;82.80;;;;;;6153904;23;20440;-90
2021/06/29 07:26:02;;;;;;;3.03;2.83;;;31.50;81.60;;;;;;6149944;23;20444;-89
2021/06/29 07:28:30;;;;;;;2.50;2.30;;;31.60;79.00;;;;;;6150372;23;20415;-92
2021/06/29 07:30:57;;;;;;;2.60;2.20;;;32.10;77.20;;;;;;6141069;23;20425;-89
2021/06/29 07:33:24;;;;;;;2.77;2.47;;;32.80;76.60;;;;;;6142265;23;20434;-88
2021/06/29 07:35:50;;;;;;;2.30;2.10;;;33.20;74.30;;;;;;6134611;23;20459;-86
2021/06/29 07:38:17;;;;;;;3.20;2.37;;;33.50;69.80;;;;;;6132447;23;20462;-88
2021/06/29 07:40:44;;;;;;;2.40;2.20;;;33.70;68.50;;;;;;6131453;23;20388;-88
2021/06/29 07:43:12;;;;;;;2.87;2.50;;;34.30;70.60;;;;;;6128811;23;20768;-88
2021/06/29 07:45:39;;;;;;;2.70;2.10;;;34.30;66.00;;;;;;6130561;23;20399;-88
2021/06/29 07:48:07;;;;;;;2.57;2.00;;;34.00;67.10;;;;;;6129563;23;20408;-89
2021/06/29 07:50:37;;;;;;;3.47;1.67;;;34.40;64.80;;;;;;6128284;23;20412;-88
2021/06/29 07:53:03;;;;;;;2.70;2.10;;;34.60;60.80;;;;;;6131720;23;20436;-88
2021/06/29 07:55:30;;;;;;;2.80;2.37;;;34.50;62.80;;;;;;6127043;23;20415;-87
2021/06/29 07:57:58;;;;;;;3.20;2.70;;;34.40;61.40;;;;;;6127544;23;20534;-87
2021/06/29 08:00:38;;;;;;;2.43;2.20;;;34.60;60.60;;;;;;6132761;23;20408;-84
2021/06/29 08:03:05;;;;;;;3.07;2.77;;;34.90;59.20;;;;;;6128895;23;20525;-85
2021/06/29 08:05:31;;;;;;;4.43;2.43;;;34.60;59.50;;;;;;6125901;23;20431;-85
2021/06/29 08:07:58;;;;;;;4.10;1.90;;;34.60;59.90;;;;;;6131056;23;20775;-85
2021/06/29 08:10:25;;;;;;;1.67;1.50;;;34.10;60.30;;;;;;6129598;23;20403;-85
2021/06/29 08:13:17;;;;;;;1.60;1.30;;;34.20;59.20;;;;;;6136671;23;20741;-91
2021/06/29 08:15:45;;;;;;;3.70;1.70;;;33.60;57.90;;;;;;6133255;23;20451;-92
2021/06/29 08:18:13;;;;;;;1.77;1.60;;;33.40;59.30;;;;;;6128113;23;20383;-89
2021/06/29 08:20:40;;;;;;;1.67;1.57;;;33.40;59.20;;;;;;6130248;23;20439;-90
2021/06/29 08:23:07;;;;;;;1.67;1.57;;;33.50;57.90;;;;;;6130599;23;20447;-89
2021/06/29 08:25:34;;;;;;;1.70;1.40;;;33.30;58.70;;;;;;6126893;23;20858;-88
2021/06/29 08:28:01;;;;;;;1.57;1.47;;;32.70;59.70;;;;;;6126094;23;20411;-89
2021/06/29 08:30:28;;;;;;;1.70;1.53;;;32.90;58.80;;;;;;6126057;23;20411;-89
2021/06/29 08:32:58;;;;;;;2.23;1.53;;;33.20;57.50;;;;;;6134166;23;20412;-89
2021/06/29 08:35:26;;;;;;;4.00;2.60;;;33.00;59.20;;;;;;6152313;23;20396;-89
2021/06/29 08:37:52;;;;;;;4.77;3.80;;;33.60;58.20;;;;;;6150684;23;20392;-89
2021/06/29 08:40:19;;;;;;;1.50;1.40;;;34.20;56.10;;;;;;6152542;23;20396;-88
2021/06/29 08:42:46;;;;;;;1.80;1.70;;;34.10;56.40;;;;;;6144719;23;20447;-88
2021/06/29 08:45:16;;;;;;;1.70;1.53;;;33.70;56.60;;;;;;6143735;23;20407;-89
2021/06/29 08:47:43;;;;;;;1.70;1.60;;;33.70;57.30;;;;;;6147076;23;20434;-90
2021/06/29 08:50:14;;;;;;;1.30;1.20;;;33.80;57.40;;;;;;6147965;23;20835;-91
2021/06/29 08:52:41;;;;;;;1.80;1.70;;;34.50;55.20;;;;;;6141629;23;20528;-90
2021/06/29 08:55:10;;;;;;;1.50;1.40;;;33.50;55.00;;;;;;6132300;23;20396;-89
2021/06/29 08:57:37;;;;;;;1.80;1.70;;;34.60;56.80;;;;;;6132757;23;20403;-90
2021/06/29 09:00:06;;;;;;;2.30;1.97;;;35.50;52.40;;;;;;6139515;23;20404;-90
2021/06/29 09:02:38;;;;;;;1.70;1.60;;;34.70;52.00;;;;;;6142767;23;20455;-91
2021/06/29 09:05:19;;;;;;;2.07;1.40;;;34.80;53.00;;;;;;6131199;23;20400;-91
2021/06/29 09:08:00;;;;;;;2.03;1.63;;;35.40;52.60;;;;;;6137211;23;20423;-90
2021/06/29 09:10:27;;;;;;;2.10;1.50;;;35.80;52.30;;;;;;6148404;23;20453;-86
2021/06/29 09:12:55;;;;;;;1.60;1.50;;;35.90;51.10;;;;;;6136853;23;20433;-87
2021/06/29 09:15:34;;;;;;;1.50;1.40;;;36.30;51.50;;;;;;6140821;23;20418;-88
2021/06/29 09:18:16;;;;;;;2.07;1.50;;;36.70;49.70;;;;;;6147258;23;20456;-89
2021/06/29 09:20:49;;;;;;;3.00;2.17;;;36.20;49.60;;;;;;6143453;23;20456;-89
2021/06/29 09:23:18;;;;;;;1.57;1.43;;;36.60;51.00;;;;;;6129604;23;20448;-90
2021/06/29 09:25:47;;;;;;;2.37;1.60;;;37.50;49.90;;;;;;6133399;23;20750;-89
2021/06/29 09:28:16;;;;;;;1.70;1.40;;;36.60;49.20;;;;;;6136859;23;20387;-90
2021/06/29 09:30:49;;;;;;;2.13;1.90;;;34.90;50.70;;;;;;6145218;23;20495;-90
2021/06/29 09:33:18;;;;;;;4.17;1.63;;;34.30;53.70;;;;;;6148007;23;20483;-90
2021/06/29 09:36:02;;;;;;;2.17;1.80;;;34.40;54.80;;;;;;6152982;23;20411;-91
2021/06/29 09:38:31;;;;;;;2.00;1.90;;;35.00;54.10;;;;;;6152296;23;20392;-88
2021/06/29 09:41:01;;;;;;;2.10;1.97;;;34.50;52.90;;;;;;6150411;23;20419;-89
2021/06/29 09:43:31;;;;;;;4.50;2.60;;;34.70;53.40;;;;;;6141864;23;20447;-90
2021/06/29 09:46:01;;;;;;;3.40;2.07;;;35.30;53.30;;;;;;6135927;23;20407;-89
2021/06/29 09:48:34;;;;;;;2.53;1.90;;;35.60;52.30;;;;;;6145808;23;20424;-90
2021/06/29 09:51:06;;;;;;;1.93;1.73;;;35.60;51.20;;;;;;6143150;23;20452;-91
2021/06/29 09:53:38;;;;;;;1.73;1.63;;;35.70;52.30;;;;;;6143830;23;20431;-89
2021/06/29 09:56:11;;;;;;;1.97;1.77;;;36.80;51.70;;;;;;6148370;23;20380;-90
2021/06/29 09:58:39;;;;;;;1.90;1.67;;;37.90;49.80;;;;;;6145060;23;20392;-88
2021/06/29 10:01:07;;;;;;;2.30;2.10;;;38.00;47.50;;;;;;6134895;23;20458;-90
2021/06/29 10:03:35;;;;;;;1.80;1.70;;;37.60;47.50;;;;;;6133245;23;20514;-89
2021/06/29 10:06:10;;;;;;;2.10;2.00;;;37.50;48.70;;;;;;6132017;23;20411;-90
2021/06/29 10:08:47;;;;;;;2.10;1.90;;;37.90;48.60;;;;;;6141474;23;20396;-92
2021/06/29 10:15:53;;;;;;;2.90;2.00;;;38.50;46.60;;;;;;6052149;23;20403;-91
2021/06/29 10:18:21;;;;;;;3.43;1.93;;;37.20;47.80;;;;;;5997198;23;20424;-86
2021/06/29 10:20:52;;;;;;;4.43;2.70;;;36.20;50.20;;;;;;6040646;23;20438;-86
2021/06/29 10:23:21;;;;;;;2.27;2.07;;;37.40;49.40;;;;;;6111973;23;20479;-87
2021/06/29 10:25:48;;;;;;;2.33;1.63;;;38.20;47.80;;;;;;6128753;23;20408;-86
2021/06/29 10:28:16;;;;;;;2.70;2.17;;;39.60;44.80;;;;;;6130967;23;20789;-87
2021/06/29 10:30:43;;;;;;;2.10;1.90;;;39.50;44.50;;;;;;6147074;23;20407;-87
2021/06/29 10:33:10;;;;;;;6.30;2.13;;;39.20;43.40;;;;;;6137518;23;20428;-86
2021/06/29 10:35:37;;;;;;;1.93;1.83;;;38.50;45.80;;;;;;6133148;23;20410;-86
2021/06/29 10:38:05;;;;;;;2.50;1.90;;;38.50;45.30;;;;;;6138097;23;20399;-86
2021/06/29 10:40:34;;;;;;;1.77;1.67;;;38.80;45.10;;;;;;6149313;23;20494;-86
2021/06/29 10:43:01;;;;;;;1.80;1.70;;;38.70;45.90;;;;;;6151008;23;20503;-86
2021/06/29 10:45:34;;;;;;;2.83;1.80;;;39.60;45.10;;;;;;6152480;23;20408;-87
2021/06/29 10:48:16;;;;;;;2.93;2.30;;;39.10;43.20;;;;;;6135722;23;20388;-86
2021/06/29 10:50:43;;;;;;;2.87;2.00;;;39.10;43.60;;;;;;6125823;23;20749;-86
2021/06/29 10:53:35;;;;;;;2.27;1.80;;;40.10;44.60;;;;;;6129131;23;20431;-86
2021/06/29 10:56:05;;;;;;;2.73;1.53;;;41.00;42.50;;;;;;6127307;23;20392;-87
2021/06/29 10:58:38;;;;;;;2.10;1.63;;;42.40;40.10;;;;;;6128362;23;20392;-87
2021/06/29 11:01:35;;;;;;;1.83;1.73;;;42.30;38.40;;;;;;6127040;23;20411;-87
2021/06/29 11:04:04;;;;;;;1.60;1.50;;;40.80;40.60;;;;;;6037599;23;20437;-86
2021/06/29 11:06:32;;;;;;;1.77;1.67;;;39.10;41.30;;;;;;6105749;23;20424;-87
2021/06/29 11:09:00;;;;;;;2.83;2.20;;;38.30;42.10;;;;;;6126751;23;20911;-86
2021/06/29 11:11:29;;;;;;;2.63;2.00;;;37.40;45.10;;;;;;6127409;23;20417;-86
2021/06/29 11:13:56;;;;;;;2.37;1.50;;;36.00;45.60;;;;;;6135728;23;20411;-85
2021/06/29 11:16:51;;;;;;;2.90;1.60;;;34.80;49.20;;;;;;6132769;23;20411;-85
2021/06/29 11:19:18;;;;;;;2.43;2.00;;;34.60;48.60;;;;;;6118163;23;20422;-86
2021/06/29 11:21:44;;;;;;;2.27;2.07;;;33.70;51.40;;;;;;6129426;23;20424;-89
2021/06/29 11:24:40;;;;;;;2.30;2.07;;;32.60;52.20;;;;;;6125670;23;20443;-89
2021/06/29 11:27:08;;;;;;;2.33;1.93;;;33.30;53.40;;;;;;6127020;23;20396;-89
2021/06/29 11:29:40;;;;;;;2.00;1.80;;;35.80;50.80;;;;;;6126486;23;20411;-90
2021/06/29 11:32:30;;;;;;;1.97;1.63;;;36.20;47.90;;;;;;6126363;23;20466;-89
2021/06/29 11:35:35;;;;;;;2.27;2.07;;;34.50;48.60;;;;;;6125259;23;20868;-90
2021/06/29 11:38:07;;;;;;;2.73;1.90;;;33.10;52.20;;;;;;6127154;23;20442;-89
2021/06/29 11:40:34;;;;;;;3.70;1.93;;;34.00;52.20;;;;;;6126919;23;20894;-89
2021/06/29 11:43:12;;;;;;;2.90;2.10;;;35.10;49.80;;;;;;6126668;23;20452;-89
2021/06/29 11:45:38;;;;;;;1.63;1.53;;;34.90;50.40;;;;;;6126996;23;20395;-89
2021/06/29 11:48:06;;;;;;;2.43;2.10;;;35.00;50.20;;;;;;6126115;23;20420;-89
2021/06/29 11:50:42;;;;;;;2.30;1.63;;;35.30;49.60;;;;;;6126021;23;20879;-89
2021/06/29 11:53:21;;;;;;;2.40;2.20;;;34.80;48.90;;;;;;6126644;23;20427;-90
2021/06/29 11:55:48;;;;;;;2.23;2.03;;;34.40;49.40;;;;;;6126393;23;20399;-88
2021/06/29 11:58:16;;;;;;;5.00;2.30;;;33.30;50.50;;;;;;6127877;23;20414;-89
2021/06/29 12:00:43;;;;;;;3.60;2.87;;;34.30;51.10;;;;;;6127402;23;20412;-89
2021/06/29 12:03:16;;;;;;;2.93;2.70;;;35.80;49.60;;;;;;6127361;23;20455;-89
2021/06/29 12:05:43;;;;;;;3.70;2.50;;;35.90;48.20;;;;;;6124497;23;20403;-89
2021/06/29 12:08:12;;;;;;;2.17;1.73;;;35.40;47.60;;;;;;6125929;23;20470;-90
2021/06/29 12:10:41;;;;;;;2.63;1.90;;;34.00;49.00;;;;;;6124644;23;20408;-90
2021/06/29 12:13:09;;;;;;;2.77;1.90;;;32.90;50.70;;;;;;6125584;23;20423;-89
2021/06/29 12:15:40;;;;;;;1.73;1.63;;;32.50;52.70;;;;;;6126790;23;20407;-88
2021/06/29 12:18:10;;;;;;;2.30;1.83;;;32.20;53.00;;;;;;6126702;23;20399;-89
2021/06/29 12:20:39;;;;;;;4.57;1.93;;;32.00;54.00;;;;;;6129018;23;20866;-89
2021/06/29 12:23:08;;;;;;;1.97;1.87;;;32.80;53.30;;;;;;6126577;23;20443;-86
2021/06/29 12:25:37;;;;;;;1.93;1.83;;;34.10;50.20;;;;;;6133040;23;20414;-89
2021/06/29 12:28:09;;;;;;;1.90;1.80;;;34.80;47.80;;;;;;6126959;23;20736;-88
2021/06/29 12:30:39;;;;;;;2.00;1.90;;;34.60;47.00;;;;;;6127498;23;20388;-89
2021/06/29 12:33:29;;;;;;;1.90;1.70;;;34.00;48.80;;;;;;6127419;23;20419;-90
2021/06/29 12:36:00;;;;;;;1.77;1.67;;;33.10;50.60;;;;;;6120588;23;20411;-92
2021/06/29 12:38:30;;;;;;;3.03;1.77;;;32.30;52.70;;;;;;6126712;23;20466;-90
2021/06/29 12:41:00;;;;;;;2.60;1.80;;;32.20;54.20;;;;;;6127289;23;20921;-90
2021/06/29 12:43:33;;;;;;;2.33;2.13;;;32.10;53.50;;;;;;6139707;23;20439;-89
2021/06/29 12:46:17;;;;;;;1.77;1.67;;;31.90;54.50;;;;;;6149746;23;20394;-88
2021/06/29 12:48:59;;;;;;;1.90;1.53;;;31.60;54.80;;;;;;6150554;23;20396;-89
2021/06/29 12:51:26;;;;;;;5.27;2.40;;;31.10;55.60;;;;;;6139543;23;20398;-87
2021/06/29 12:53:54;;;;;;;2.60;2.07;;;30.80;57.70;;;;;;6153396;23;20426;-88
2021/06/29 12:56:21;;;;;;;4.90;2.43;;;30.60;57.90;;;;;;6149255;23;20391;-88
2021/06/29 12:58:50;;;;;;;2.37;2.17;;;30.90;58.00;;;;;;6134792;23;20511;-88
2021/06/29 13:01:20;;;;;;;2.43;2.20;;;30.90;57.80;;;;;;6130756;23;20414;-90
2021/06/29 13:03:55;;;;;;;2.60;2.40;;;30.50;57.40;;;;;;6131038;23;20454;-89
2021/06/29 13:06:24;;;;;;;2.53;2.20;;;30.00;59.60;;;;;;6137061;23;20391;-89
2021/06/29 13:09:46;;;;;;;2.30;2.10;;;29.40;60.60;;;;;;6143940;23;20394;-93
2021/06/29 13:12:15;;;;;;;5.90;2.10;;;28.80;63.10;;;;;;6144585;23;20503;-87
2021/06/29 13:14:54;;;;;;;10.57;2.77;;;27.20;72.10;;;;;;6128931;23;20463;-88
2021/06/29 13:17:23;;;;;;;2.90;1.60;;;24.40;90.00;;;;;;6128640;23;20861;-88
2021/06/29 13:19:53;;;;;;;3.90;1.80;;;22.10;94.60;;;;;;6127423;23;20403;-88
2021/06/29 13:22:20;;;;;;;7.33;2.27;;;20.70;99.90;;;;;;6127048;23;20481;-87